Time;durP1;ratioP1;P1;durP2;ratioP2;P2;SDS_P1;SDS_P2;PMS_P1;PMS_P2;Temp;Humidity;BMP_temperature;BMP_pressure;BME280_temperature;BME280_humidity;BME280_pressure;Samples;Min_cycle;Max_cycle;Signal;HPM_P1;HPM_P2
2023/04/13 00:01:58;;;;;;;2.83;1.27;;;;;;;-143.48;97.40;118439.88;5053703;28;20036;-67
2023/04/13 00:04:25;;;;;;;2.58;1.10;;;;;;;-143.48;97.78;118439.88;5053750;28;20538;-67
2023/04/13 00:06:51;;;;;;;3.88;1.30;;;;;;;-143.48;97.47;118439.88;5053687;28;20029;-67
2023/04/13 00:09:17;;;;;;;3.83;1.38;;;;;;;-143.48;97.99;118439.88;5035882;28;20453;-67
2023/04/13 00:11:43;;;;;;;5.47;1.80;;;;;;;-143.48;98.14;118439.88;5054003;28;20029;-67
2023/04/13 00:14:09;;;;;;;3.00;1.40;;;;;;;-143.48;98.53;118439.88;5053540;28;20480;-67
2023/04/13 00:16:34;;;;;;;3.67;1.42;;;;;;;-143.48;99.37;118439.88;5053502;28;20075;-68
2023/04/13 00:19:00;;;;;;;4.40;1.48;;;;;;;-143.48;99.51;118439.88;5035840;28;20020;-67
2023/04/13 00:21:26;;;;;;;4.13;1.55;;;;;;;-143.48;99.71;118439.88;5053713;28;20025;-67
2023/04/13 00:23:52;;;;;;;5.78;1.45;;;;;;;-143.48;99.79;118439.88;5053581;28;20032;-67
2023/04/13 00:26:20;;;;;;;5.53;1.75;;;;;;;-143.48;99.83;118439.88;5056410;28;20464;-66
2023/04/13 00:28:46;;;;;;;3.92;1.65;;;;;;;-143.48;99.30;118439.88;5057328;28;20049;-67
2023/04/13 00:31:11;;;;;;;3.50;1.65;;;;;;;-143.48;98.80;118439.88;5057505;28;20369;-66
2023/04/13 00:33:36;;;;;;;4.10;1.38;;;;;;;-143.48;98.12;118439.88;5057174;28;20389;-68
2023/04/13 00:36:02;;;;;;;2.90;1.38;;;;;;;-143.48;97.65;118439.88;5057305;28;20472;-67
2023/04/13 00:38:28;;;;;;;2.53;1.52;;;;;;;-143.48;97.54;118439.88;5039283;28;20056;-67
2023/04/13 00:40:54;;;;;;;3.38;1.60;;;;;;;-143.48;97.89;118439.88;5056938;28;20059;-67
2023/04/13 00:43:20;;;;;;;2.55;1.45;;;;;;;-143.48;98.01;118439.88;5022589;28;20077;-67
2023/04/13 00:45:46;;;;;;;3.25;1.30;;;;;;;-143.48;98.24;118439.88;5056937;28;20028;-67
2023/04/13 00:48:11;;;;;;;3.25;1.40;;;;;;;-143.48;98.55;118439.88;5056824;28;20029;-68
2023/04/13 00:50:38;;;;;;;2.08;1.35;;;;;;;-143.48;98.92;118439.88;5057139;28;20021;-67
2023/04/13 00:53:05;;;;;;;3.10;1.60;;;;;;;-143.48;99.23;118439.88;5056989;28;20024;-68
2023/04/13 00:55:30;;;;;;;3.45;1.70;;;;;;;-143.48;99.66;118439.88;5057278;28;20104;-67
2023/04/13 00:57:58;;;;;;;3.42;1.60;;;;;;;-143.48;100.00;118439.88;5056813;28;20107;-67
2023/04/13 01:00:24;;;;;;;3.47;1.60;;;;;;;-143.48;100.00;118439.88;5038669;28;20025;-68
2023/04/13 01:02:51;;;;;;;2.83;1.50;;;;;;;-143.48;99.96;118439.88;5038878;28;20029;-68
2023/04/13 01:05:17;;;;;;;4.40;1.60;;;;;;;-143.48;100.00;118439.88;5038998;28;20551;-67
2023/04/13 01:08:07;;;;;;;3.17;1.50;;;;;;;-143.48;100.00;118439.88;5056714;28;20083;-68
2023/04/13 01:10:48;;;;;;;4.22;1.50;;;;;;;-143.48;100.00;118439.88;5038792;28;20075;-67
2023/04/13 01:13:27;;;;;;;4.35;1.60;;;;;;;-143.48;100.00;118439.88;5038586;28;20116;-68
2023/04/13 01:16:01;;;;;;;2.40;1.40;;;;;;;-143.48;100.00;118439.88;5056693;28;20063;-67
2023/04/13 01:18:27;;;;;;;2.60;1.60;;;;;;;-143.48;99.92;118439.88;5038540;28;20017;-68
2023/04/13 01:20:53;;;;;;;3.28;1.60;;;;;;;-143.48;99.66;118439.88;5056513;28;20029;-68
2023/04/13 01:23:30;;;;;;;2.28;1.50;;;;;;;-143.48;99.70;118439.88;5056180;28;20395;-69
2023/04/13 01:26:00;;;;;;;2.78;1.55;;;;;;;-143.48;99.91;118439.88;5056631;28;20028;-68
2023/04/13 01:28:27;;;;;;;2.00;1.40;;;;;;;-143.48;100.00;118439.88;5056410;28;20039;-66
2023/04/13 01:30:54;;;;;;;3.00;1.58;;;;;;;-143.48;99.87;118439.88;5056453;28;20111;-68
2023/04/13 01:33:21;;;;;;;3.15;1.70;;;;;;;-143.48;99.93;118439.88;5056455;28;20102;-67
2023/04/13 01:35:48;;;;;;;3.92;1.45;;;;;;;-143.48;100.00;118439.88;5056386;28;20173;-68
2023/04/13 01:38:13;;;;;;;5.07;1.45;;;;;;;-143.48;100.00;118439.88;5055301;28;20045;-68
2023/04/13 01:40:43;;;;;;;2.70;1.80;;;;;;;-143.48;100.00;118439.88;5056073;28;20087;-67
2023/04/13 01:43:08;;;;;;;2.80;1.63;;;;;;;-143.48;100.00;118439.88;5056012;28;20053;-68
2023/04/13 01:45:46;;;;;;;3.22;1.65;;;;;;;-143.48;100.00;118439.88;5056092;28;20380;-67
2023/04/13 01:48:20;;;;;;;3.28;1.88;;;;;;;-143.48;100.00;118439.88;5055907;28;20025;-68
2023/04/13 01:50:50;;;;;;;2.78;1.90;;;;;;;-143.48;100.00;118439.88;5056000;28;20021;-67
2023/04/13 01:53:30;;;;;;;6.63;1.90;;;;;;;-143.48;100.00;118439.88;5056076;28;20057;-68
2023/04/13 01:55:56;;;;;;;2.30;1.60;;;;;;;-143.48;100.00;118439.88;5037956;28;20052;-68
2023/04/13 01:58:26;;;;;;;3.03;1.80;;;;;;;-143.48;100.00;118439.88;5055473;28;20048;-67
2023/04/13 02:00:55;;;;;;;4.03;2.08;;;;;;;-143.48;100.00;118439.88;5055927;28;20052;-68
2023/04/13 02:03:21;;;;;;;3.85;1.92;;;;;;;-143.48;100.00;118439.88;5055818;28;20021;-68
2023/04/13 02:05:47;;;;;;;3.42;2.00;;;;;;;-143.48;100.00;118439.88;5055706;28;20029;-67
2023/04/13 02:08:13;;;;;;;4.55;2.10;;;;;;;-143.48;100.00;118439.88;5055548;28;20457;-68
2023/04/13 02:10:38;;;;;;;4.13;2.20;;;;;;;-143.48;100.00;118439.88;5055711;28;20029;-67
2023/04/13 02:13:04;;;;;;;3.47;2.20;;;;;;;-143.48;100.00;118439.88;5055394;28;20029;-67
2023/04/13 02:15:34;;;;;;;3.60;2.17;;;;;;;-143.48;100.00;118439.88;5055390;28;20381;-67
2023/04/13 02:17:59;;;;;;;2.97;2.10;;;;;;;-143.48;100.00;118439.88;5055300;28;20017;-67
2023/04/13 02:20:24;;;;;;;3.72;2.22;;;;;;;-143.48;100.00;118439.88;5055443;28;20029;-68
2023/04/13 02:22:50;;;;;;;3.38;2.60;;;;;;;-143.48;100.00;118439.88;5055364;28;20036;-67
2023/04/13 02:25:16;;;;;;;5.30;2.15;;;;;;;-143.48;100.00;118439.88;5055624;28;20104;-68
2023/04/13 02:27:42;;;;;;;5.45;2.67;;;;;;;-143.48;100.00;118439.88;5055374;28;20083;-67
2023/04/13 02:30:11;;;;;;;5.43;2.50;;;;;;;-143.48;100.00;118439.88;5055278;28;20341;-67
2023/04/13 02:32:40;;;;;;;4.55;2.33;;;;;;;-143.48;100.00;118439.88;5055299;28;20025;-67
2023/04/13 02:35:10;;;;;;;4.78;2.25;;;;;;;-143.48;100.00;118439.88;5037292;28;20060;-67
2023/04/13 02:37:38;;;;;;;5.13;2.58;;;;;;;-143.48;100.00;118439.88;5055206;28;20025;-67
2023/04/13 02:40:07;;;;;;;4.38;2.40;;;;;;;-143.48;100.00;118439.88;5055138;28;20052;-67
2023/04/13 02:42:32;;;;;;;5.00;2.40;;;;;;;-143.48;100.00;118439.88;5036815;28;20194;-68
2023/04/13 02:44:58;;;;;;;4.80;2.55;;;;;;;-143.48;100.00;118439.88;5055019;28;20472;-68
2023/04/13 02:47:23;;;;;;;6.25;2.40;;;;;;;-143.48;100.00;118439.88;5054766;28;20075;-67
2023/04/13 02:49:48;;;;;;;8.07;2.80;;;;;;;-143.48;100.00;118439.88;5054699;28;20028;-67
2023/04/13 02:52:13;;;;;;;6.13;2.47;;;;;;;-143.48;100.00;118439.88;5054643;28;20044;-67
2023/04/13 02:54:39;;;;;;;3.97;2.33;;;;;;;-143.48;100.00;118439.88;5056303;28;20021;-68
2023/04/13 02:57:05;;;;;;;3.97;2.03;;;;;;;-143.48;99.77;118439.88;5054667;28;20028;-67
2023/04/13 02:59:30;;;;;;;7.97;2.10;;;;;;;-143.48;99.98;118439.88;5054773;28;20423;-68
2023/04/13 03:01:57;;;;;;;8.15;2.40;;;;;;;-143.48;99.61;118439.88;5054552;28;20384;-67
2023/04/13 03:04:24;;;;;;;4.72;1.90;;;;;;;-143.48;99.66;118439.88;5036546;28;20013;-67
2023/04/13 03:06:49;;;;;;;5.63;2.03;;;;;;;-143.48;99.14;118439.88;5054261;28;20091;-67
2023/04/13 03:09:15;;;;;;;4.90;1.90;;;;;;;-143.48;98.63;118439.88;5036558;28;20029;-68
2023/04/13 03:11:40;;;;;;;8.73;1.95;;;;;;;-143.48;98.14;118439.88;5054432;28;20491;-68
2023/04/13 03:14:06;;;;;;;5.43;1.95;;;;;;;-143.48;98.57;118439.88;5054361;28;20029;-67
2023/04/13 03:16:33;;;;;;;4.82;1.88;;;;;;;-143.48;98.26;118439.88;5036370;28;20079;-68
2023/04/13 03:18:58;;;;;;;8.98;1.80;;;;;;;-143.48;98.11;118439.88;5054173;28;20017;-67
2023/04/13 03:21:23;;;;;;;5.20;1.80;;;;;;;-143.48;97.68;118439.88;5054225;28;20029;-67
2023/04/13 03:23:49;;;;;;;5.63;1.90;;;;;;;-143.48;97.46;118439.88;5054276;28;20024;-67
2023/04/13 03:26:14;;;;;;;10.10;1.85;;;;;;;-143.48;97.85;118439.88;5054097;28;20052;-67
2023/04/13 03:28:39;;;;;;;8.02;1.80;;;;;;;-143.48;98.48;118439.88;5054284;28;20478;-68
2023/04/13 03:31:04;;;;;;;6.00;2.15;;;;;;;-143.48;97.95;118439.88;5054052;28;20020;-67
2023/04/13 03:33:30;;;;;;;6.82;1.90;;;;;;;-143.48;98.48;118439.88;5054277;28;20035;-68
2023/04/13 03:35:56;;;;;;;4.95;1.80;;;;;;;-143.48;98.85;118439.88;5054209;28;20361;-67
2023/04/13 03:38:21;;;;;;;8.18;2.45;;;;;;;-143.48;98.50;118439.88;5035973;28;20036;-67
2023/04/13 03:40:47;;;;;;;7.65;1.98;;;;;;;-143.48;98.03;118439.88;5036038;28;20084;-67
2023/04/13 03:43:12;;;;;;;6.05;2.10;;;;;;;-143.48;98.42;118439.88;5053866;28;20045;-67
2023/04/13 03:45:37;;;;;;;4.60;2.10;;;;;;;-143.48;98.30;118439.88;5053871;28;20024;-66
2023/04/13 03:48:04;;;;;;;8.68;2.40;;;;;;;-143.48;98.01;118439.88;5036137;28;20032;-67
2023/04/13 03:50:30;;;;;;;10.50;2.20;;;;;;;-143.48;98.19;118439.88;5035768;28;20082;-67
2023/04/13 03:52:55;;;;;;;7.90;2.10;;;;;;;-143.48;98.19;118439.88;5054105;28;20025;-68
2023/04/13 03:55:20;;;;;;;7.22;2.20;;;;;;;-143.48;98.02;118439.88;5054128;28;20057;-67
2023/04/13 03:57:46;;;;;;;9.68;2.00;;;;;;;-143.48;98.29;118439.88;5053765;28;20350;-68
2023/04/13 04:00:13;;;;;;;8.15;2.30;;;;;;;-143.48;97.71;118439.88;5053417;28;20020;-67
2023/04/13 04:02:39;;;;;;;4.35;2.15;;;;;;;-143.48;97.93;118439.88;5054066;28;20029;-68
2023/04/13 04:05:05;;;;;;;6.15;2.03;;;;;;;-143.48;98.43;118439.88;5053583;28;20047;-67
2023/04/13 04:07:30;;;;;;;7.32;2.33;;;;;;;-143.48;98.31;118439.88;5053744;28;20527;-68
2023/04/13 04:09:55;;;;;;;8.10;2.05;;;;;;;-143.48;98.92;118439.88;5053644;28;20453;-67
2023/04/13 04:12:20;;;;;;;4.80;1.85;;;;;;;-143.48;99.06;118439.88;5053718;28;20495;-68
2023/04/13 04:14:46;;;;;;;4.82;2.08;;;;;;;-143.48;98.98;118439.88;5053615;28;20452;-68
2023/04/13 04:17:11;;;;;;;7.22;2.10;;;;;;;-143.48;98.80;118439.88;5053551;28;20020;-67
2023/04/13 04:19:36;;;;;;;10.60;2.10;;;;;;;-143.48;98.31;118439.88;5035783;28;20024;-67
2023/04/13 04:22:08;;;;;;;6.20;2.17;;;;;;;-143.48;98.14;118439.88;5053561;28;20021;-66
2023/04/13 04:24:34;;;;;;;7.57;2.00;;;;;;;-143.48;98.76;118439.88;5053792;28;20032;-68
2023/04/13 04:27:00;;;;;;;5.95;1.77;;;;;;;-143.48;97.86;118439.88;5053600;28;20029;-67
2023/04/13 04:29:33;;;;;;;12.82;2.15;;;;;;;-143.48;97.99;118439.88;5053248;28;20369;-67
2023/04/13 04:31:59;;;;;;;6.18;1.90;;;;;;;-143.48;97.60;118439.88;5053696;28;20029;-67
2023/04/13 04:34:25;;;;;;;5.90;1.98;;;;;;;-143.48;96.67;118439.88;5037918;28;20057;-67
2023/04/13 04:36:51;;;;;;;7.57;1.80;;;;;;;-143.48;96.92;118439.88;5055582;28;20071;-68
2023/04/13 04:39:22;;;;;;;8.05;2.05;;;;;;;-143.48;96.50;118439.88;5037564;28;20028;-69
2023/04/13 04:41:53;;;;;;;10.30;2.10;;;;;;;-143.48;96.39;118439.88;5053101;28;20045;-68
2023/04/13 04:44:24;;;;;;;8.88;1.98;;;;;;;-143.48;96.60;118439.88;5054011;28;20040;-68
2023/04/13 04:46:52;;;;;;;10.75;2.20;;;;;;;-143.48;97.37;118439.88;5053798;28;20105;-67
2023/04/13 04:49:20;;;;;;;7.78;2.17;;;;;;;-143.48;96.88;118439.88;5035543;28;20025;-68
2023/04/13 04:51:47;;;;;;;7.70;1.80;;;;;;;-143.48;97.03;118439.88;5035851;28;20524;-68
2023/04/13 04:54:15;;;;;;;7.72;2.22;;;;;;;-143.48;97.08;118439.88;5037227;28;20032;-68
2023/04/13 04:56:41;;;;;;;7.47;2.03;;;;;;;-143.48;97.29;118439.88;5036394;28;20033;-66
2023/04/13 04:59:07;;;;;;;12.38;2.00;;;;;;;-143.48;97.91;118439.88;5036341;28;20071;-67
2023/04/13 05:01:33;;;;;;;9.07;2.30;;;;;;;-143.48;97.99;118439.88;5036234;28;20025;-68
2023/04/13 05:04:00;;;;;;;9.10;2.30;;;;;;;-143.48;97.37;118439.88;5054633;28;20067;-68
2023/04/13 05:06:26;;;;;;;5.70;2.08;;;;;;;-143.48;96.90;118439.88;5036781;28;20384;-68
2023/04/13 05:08:51;;;;;;;15.07;2.17;;;;;;;-143.48;96.39;118439.88;5038167;28;20029;-68
2023/04/13 05:11:17;;;;;;;11.88;2.17;;;;;;;-143.48;97.38;118439.88;5036794;28;20024;-67
2023/04/13 05:13:44;;;;;;;5.28;1.90;;;;;;;-143.48;96.51;118439.88;5040720;28;20025;-67
2023/04/13 05:16:10;;;;;;;9.43;2.38;;;;;;;-143.48;96.47;118439.88;5041585;28;20102;-68
2023/04/13 05:18:45;;;;;;;8.27;1.95;;;;;;;-143.48;96.12;118439.88;5060350;28;20524;-67
2023/04/13 05:21:12;;;;;;;9.30;2.28;;;;;;;-143.48;95.52;118439.88;5043275;28;20162;-68
2023/04/13 05:23:38;;;;;;;11.43;2.25;;;;;;;-143.48;94.67;118439.88;5059726;28;20025;-68
2023/04/13 05:26:04;;;;;;;6.93;2.08;;;;;;;-143.48;93.94;118439.88;5059489;28;20029;-68
2023/04/13 05:28:29;;;;;;;7.93;2.10;;;;;;;-143.48;93.38;118439.88;5045575;28;20404;-69
2023/04/13 05:31:00;;;;;;;13.02;2.10;;;;;;;-143.48;93.64;118439.88;5041791;28;20024;-67
2023/04/13 05:33:25;;;;;;;5.43;1.98;;;;;;;-143.48;93.18;118439.88;5061135;28;20021;-67
2023/04/13 05:35:54;;;;;;;9.48;2.28;;;;;;;-143.48;93.09;118439.88;5064359;28;20035;-69
2023/04/13 05:38:20;;;;;;;8.35;2.15;;;;;;;-143.48;92.88;118439.88;5065477;28;20056;-67
2023/04/13 05:40:45;;;;;;;7.63;2.00;;;;;;;-143.48;93.33;118439.88;5061546;28;20032;-67
2023/04/13 05:43:14;;;;;;;7.65;1.90;;;;;;;-143.48;92.19;118439.88;5062745;28;20385;-67
2023/04/13 05:45:42;;;;;;;7.68;1.63;;;;;;;-143.48;91.59;118439.88;5064419;28;20104;-68
2023/04/13 05:48:07;;;;;;;9.88;1.80;;;;;;;-143.48;92.44;118439.88;5067499;28;20020;-68
2023/04/13 05:50:36;;;;;;;7.22;1.65;;;;;;;-143.48;92.18;118439.88;5066087;28;20465;-68
2023/04/13 05:53:01;;;;;;;6.93;1.90;;;;;;;-143.48;92.69;118439.88;5049857;28;20033;-69
2023/04/13 05:55:26;;;;;;;9.82;1.70;;;;;;;-143.48;92.45;118439.88;5070105;28;20112;-69
2023/04/13 05:57:52;;;;;;;6.90;1.40;;;;;;;-143.48;92.78;118439.88;5068654;28;20036;-68
2023/04/13 06:00:20;;;;;;;7.13;1.45;;;;;;;-143.48;94.75;118439.88;5070389;28;20029;-68
2023/04/13 06:02:47;;;;;;;9.35;2.03;;;;;;;-143.48;95.49;118439.88;5070757;28;20480;-69
2023/04/13 06:05:14;;;;;;;6.93;1.90;;;;;;;-143.48;94.64;118439.88;5066710;28;20514;-68
2023/04/13 06:07:42;;;;;;;7.05;2.00;;;;;;;-143.48;93.52;118439.88;5060340;28;20078;-67
2023/04/13 06:10:07;;;;;;;4.20;1.50;;;;;;;-143.48;90.42;118439.88;5059135;28;20036;-68
2023/04/13 06:12:33;;;;;;;5.07;1.48;;;;;;;-143.48;90.76;118439.88;5058542;28;20194;-67
2023/04/13 06:14:59;;;;;;;6.55;1.50;;;;;;;-143.48;93.25;118439.88;5057339;28;20155;-68
2023/04/13 06:17:24;;;;;;;6.15;1.60;;;;;;;-143.48;93.25;118439.88;5056408;28;20025;-67
2023/04/13 06:19:49;;;;;;;7.05;1.77;;;;;;;-143.48;92.72;118439.88;5055858;28;20036;-67
2023/04/13 06:22:15;;;;;;;8.38;2.00;;;;;;;-143.48;93.01;118439.88;5055271;28;20464;-68
2023/04/13 06:24:40;;;;;;;6.32;1.75;;;;;;;-143.48;93.69;118439.88;5054236;28;20031;-69
2023/04/13 06:27:06;;;;;;;7.32;1.58;;;;;;;-143.48;93.70;118439.88;5036956;28;20029;-68
2023/04/13 06:29:31;;;;;;;6.80;2.13;;;;;;;-143.48;93.50;118439.88;5036747;28;20070;-69
2023/04/13 06:31:56;;;;;;;7.30;2.10;;;;;;;-143.48;94.14;118439.88;5055041;28;20025;-68
2023/04/13 06:34:22;;;;;;;7.35;1.58;;;;;;;-143.48;94.43;118439.88;5054366;28;20021;-68
2023/04/13 06:36:47;;;;;;;4.28;1.80;;;;;;;-143.48;94.39;118439.88;5055497;28;20025;-67
2023/04/13 06:39:14;;;;;;;6.45;1.85;;;;;;;-143.48;93.94;118439.88;5065206;28;20001;-68
2023/04/13 06:41:39;;;;;;;6.70;1.70;;;;;;;-143.48;93.51;118439.88;5055363;28;20080;-67
2023/04/13 06:44:05;;;;;;;7.65;1.95;;;;;;;-143.48;93.40;118439.88;5055921;28;20032;-68
2023/04/13 06:46:30;;;;;;;7.38;1.52;;;;;;;-143.48;92.22;118439.88;5055634;28;20514;-66
2023/04/13 06:48:55;;;;;;;7.25;2.33;;;;;;;-143.48;92.42;118439.88;5055985;28;20051;-67
2023/04/13 06:51:21;;;;;;;11.85;2.65;;;;;;;-143.48;91.98;118439.88;5059784;28;20029;-67
2023/04/13 06:53:46;;;;;;;7.15;1.70;;;;;;;-143.48;89.98;118439.88;5036910;28;20036;-68
2023/04/13 06:56:11;;;;;;;7.57;1.48;;;;;;;-143.48;90.24;118439.88;5055053;28;20409;-68
2023/04/13 06:58:36;;;;;;;11.88;1.58;;;;;;;-143.48;93.20;118439.88;5055374;28;20096;-68
2023/04/13 07:01:02;;;;;;;10.30;1.80;;;;;;;-143.48;94.92;118439.88;5055458;28;20457;-68
2023/04/13 07:03:27;;;;;;;7.25;1.80;;;;;;;-143.48;95.65;118439.88;5055230;28;20044;-67
2023/04/13 07:05:53;;;;;;;7.25;1.63;;;;;;;-143.48;96.66;118439.88;5055525;28;20044;-68
2023/04/13 07:08:18;;;;;;;7.72;1.50;;;;;;;-143.48;96.24;118439.88;5036619;28;20027;-67
2023/04/13 07:10:45;;;;;;;7.85;2.10;;;;;;;-143.48;95.05;118439.88;5054718;28;20376;-67
2023/04/13 07:13:11;;;;;;;10.57;1.58;;;;;;;-143.48;94.96;118439.88;5054445;28;20025;-68
2023/04/13 07:15:36;;;;;;;10.10;1.80;;;;;;;-143.48;92.19;118439.88;5054687;28;20384;-67
2023/04/13 07:18:02;;;;;;;4.88;1.35;;;;;;;-143.48;93.09;118439.88;5054699;28;20400;-67
2023/04/13 07:20:28;;;;;;;7.35;1.58;;;;;;;-143.48;93.38;118439.88;5036918;28;20441;-67
2023/04/13 07:22:53;;;;;;;8.07;1.60;;;;;;;-143.48;92.21;118439.88;5054048;28;20065;-67
2023/04/13 07:25:20;;;;;;;6.20;1.30;;;;;;;-143.48;92.29;118439.88;5054136;28;20461;-67
2023/04/13 07:27:46;;;;;;;13.00;1.65;;;;;;;-143.48;91.74;118439.88;5054022;28;20028;-66
2023/04/13 07:30:11;;;;;;;6.45;1.38;;;;;;;-143.48;90.95;118439.88;5054272;28;20029;-67
2023/04/13 07:32:37;;;;;;;11.70;1.95;;;;;;;-143.48;91.15;118439.88;5054360;28;20480;-67
2023/04/13 07:35:02;;;;;;;6.90;1.67;;;;;;;-143.48;91.65;118439.88;5054191;28;20021;-66
2023/04/13 07:37:28;;;;;;;6.85;1.80;;;;;;;-143.48;90.35;118439.88;5056685;28;20031;-67
2023/04/13 07:39:53;;;;;;;7.53;1.80;;;;;;;-143.48;89.26;118439.88;5060117;28;20040;-67
2023/04/13 07:42:19;;;;;;;9.90;2.08;;;;;;;-143.48;90.44;118439.88;5054378;28;20477;-67
2023/04/13 07:44:44;;;;;;;9.10;1.63;;;;;;;-143.48;89.73;118439.88;5054122;28;20465;-68
2023/04/13 07:47:12;;;;;;;8.85;2.00;;;;;;;-143.48;85.88;118439.88;5054290;28;20143;-67
2023/04/13 07:49:38;;;;;;;15.85;2.45;;;;;;;-143.48;74.76;118439.88;5055023;28;20072;-67
2023/04/13 07:52:03;;;;;;;9.93;2.40;;;;;;;-143.48;76.03;118439.88;5056219;28;20055;-67
2023/04/13 07:54:29;;;;;;;9.05;2.03;;;;;;;-143.48;72.42;118439.88;5056135;28;20064;-68
2023/04/13 07:56:55;;;;;;;13.52;2.42;;;;;;;-143.48;73.90;118439.88;5054584;28;20063;-68
2023/04/13 07:59:21;;;;;;;14.23;2.28;;;;;;;-143.48;79.10;118439.88;5054187;28;20469;-67
2023/04/13 08:01:46;;;;;;;18.15;2.75;;;;;;;-143.48;80.76;118439.88;5052776;28;20111;-68
2023/04/13 08:04:11;;;;;;;23.02;4.35;;;;;;;-143.48;81.26;118439.88;5052543;28;20047;-67
2023/04/13 08:06:37;;;;;;;20.23;3.10;;;;;;;-143.48;79.58;118439.88;5052659;28;20070;-67
2023/04/13 08:09:02;;;;;;;16.63;2.67;;;;;;;-143.48;75.47;118439.88;5053548;28;20024;-68
2023/04/13 08:11:28;;;;;;;17.00;4.20;;;;;;;-143.48;73.19;118439.88;5054319;28;20491;-69
2023/04/13 08:13:53;;;;;;;17.80;3.13;;;;;;;-143.48;76.57;118439.88;5055681;28;20086;-67
2023/04/13 08:16:18;;;;;;;22.33;3.42;;;;;;;-143.48;74.40;118439.88;5045085;28;20111;-66
2023/04/13 08:18:44;;;;;;;16.95;2.83;;;;;;;-143.48;77.55;118439.88;5048012;28;20025;-68
2023/04/13 08:21:10;;;;;;;14.00;2.58;;;;;;;-143.48;77.65;118439.88;5055551;28;20025;-68
2023/04/13 08:23:40;;;;;;;19.50;2.80;;;;;;;-143.48;79.19;118439.88;5053526;28;20029;-66
2023/04/13 08:26:05;;;;;;;14.30;2.90;;;;;;;-143.48;77.73;118439.88;5036213;28;20396;-67
2023/04/13 08:28:31;;;;;;;14.52;3.17;;;;;;;-143.48;78.76;118439.88;5053742;28;20033;-68
2023/04/13 08:30:57;;;;;;;13.35;2.38;;;;;;;-143.48;79.92;118439.88;5054036;28;20036;-68
2023/04/13 08:33:22;;;;;;;12.63;2.10;;;;;;;-143.48;78.85;118439.88;5054040;28;20437;-68
2023/04/13 08:35:47;;;;;;;12.15;2.33;;;;;;;-143.48;80.23;118439.88;5053588;28;20400;-68
2023/04/13 08:38:13;;;;;;;12.13;2.65;;;;;;;-143.48;77.20;118439.88;5054252;28;20067;-68
2023/04/13 08:40:39;;;;;;;10.65;2.17;;;;;;;-143.48;78.09;118439.88;5056744;28;20044;-68
2023/04/13 08:43:06;;;;;;;17.00;2.75;;;;;;;-143.48;78.01;118439.88;5056091;28;20048;-68
2023/04/13 08:45:31;;;;;;;11.10;2.20;;;;;;;-143.48;76.34;118439.88;5054429;28;20052;-67
2023/04/13 08:47:57;;;;;;;12.00;2.35;;;;;;;-143.48;75.55;118439.88;5057073;28;20091;-67
2023/04/13 08:50:25;;;;;;;15.98;2.45;;;;;;;-143.48;75.49;118439.88;5060831;28;20037;-66
2023/04/13 08:52:50;;;;;;;16.38;2.30;;;;;;;-143.48;76.62;118439.88;5058321;28;20123;-70
2023/04/13 08:55:16;;;;;;;13.65;2.78;;;;;;;-143.48;75.75;118439.88;5039448;28;20484;-67
2023/04/13 08:57:45;;;;;;;15.73;2.45;;;;;;;-143.48;76.13;118439.88;5057078;28;20032;-68
2023/04/13 09:00:16;;;;;;;13.57;2.55;;;;;;;-143.48;76.46;118439.88;5041858;28;20497;-67
2023/04/13 09:02:47;;;;;;;15.40;2.22;;;;;;;-143.48;75.60;118439.88;5061872;28;20036;-67
2023/04/13 09:05:19;;;;;;;11.25;2.40;;;;;;;-143.48;74.46;118439.88;5070560;28;20028;-67
2023/04/13 09:07:52;;;;;;;9.73;1.92;;;;;;;-143.48;72.30;118439.88;5069862;28;20036;-67
2023/04/13 09:10:19;;;;;;;15.30;2.20;;;;;;;-143.48;73.70;118439.88;5067697;28;20492;-68
2023/04/13 09:12:44;;;;;;;10.93;1.80;;;;;;;-143.48;72.36;118439.88;5067667;28;20088;-68
2023/04/13 09:15:12;;;;;;;11.57;2.10;;;;;;;-143.48;70.12;118439.88;5067810;28;20021;-67
2023/04/13 09:17:37;;;;;;;12.18;1.90;;;;;;;-143.48;66.65;118439.88;5069743;28;20021;-68
2023/04/13 09:20:16;;;;;;;13.93;2.33;;;;;;;-143.48;68.38;118439.88;5069883;28;20021;-67
2023/04/13 09:22:42;;;;;;;12.82;2.25;;;;;;;-143.48;67.39;118439.88;5069139;28;20084;-68
2023/04/13 09:25:26;;;;;;;19.00;2.67;;;;;;;-143.48;64.02;118439.88;5051268;28;20088;-69
2023/04/13 09:27:51;;;;;;;;;;;;;;;-143.48;63.22;118439.88;5069877;28;20047;-68
2023/04/13 09:30:22;;;;;;;20.80;2.85;;;;;;;-143.48;59.65;118439.88;5051125;28;19908;-69
2023/04/13 09:32:48;;;;;;;16.08;2.33;;;;;;;-143.48;57.16;118439.88;5070811;28;20060;-69
2023/04/13 09:35:13;;;;;;;16.58;2.53;;;;;;;-143.48;57.59;118439.88;5069860;28;20040;-69
2023/04/13 09:37:41;;;;;;;13.57;2.00;;;;;;;-143.48;56.59;118439.88;5070758;28;20017;-69
2023/04/13 09:40:14;;;;;;;16.38;2.67;;;;;;;-143.48;61.42;118439.88;5070167;28;20021;-67
2023/04/13 09:43:00;;;;;;;10.02;2.20;;;;;;;-143.48;57.67;118439.88;5071138;28;20049;-70
2023/04/13 09:45:36;;;;;;;10.00;2.05;;;;;;;-143.48;58.41;118439.88;5069851;28;20033;-68
2023/04/13 09:48:03;;;;;;;10.57;2.00;;;;;;;-143.48;55.97;118439.88;5069937;28;20032;-68
2023/04/13 09:50:31;;;;;;;17.02;2.45;;;;;;;-143.48;58.57;118439.88;5070431;28;20027;-68
2023/04/13 09:53:09;;;;;;;11.25;2.22;;;;;;;-143.48;57.17;118439.88;5068602;28;20048;-68
2023/04/13 09:55:36;;;;;;;10.00;2.05;;;;;;;-143.48;58.77;118439.88;5067876;28;20028;-68
2023/04/13 09:58:12;;;;;;;16.48;2.50;;;;;;;-143.48;57.34;118439.88;5050524;28;20587;-68
2023/04/13 10:00:40;;;;;;;14.57;2.10;;;;;;;-143.48;58.37;118439.88;5069256;28;20024;-69
2023/04/13 10:03:11;;;;;;;9.32;1.98;;;;;;;-143.48;58.27;118439.88;5052103;28;20017;-69
2023/04/13 10:05:37;;;;;;;9.73;2.28;;;;;;;-143.48;59.11;118439.88;5068487;28;20032;-67
2023/04/13 10:08:04;;;;;;;16.38;2.30;;;;;;;-143.48;59.53;118439.88;5067832;28;20020;-67
2023/04/13 10:10:30;;;;;;;8.70;1.95;;;;;;;-143.48;60.18;118439.88;5068021;28;20039;-67
2023/04/13 10:12:58;;;;;;;17.85;2.50;;;;;;;-143.48;58.94;118439.88;5066637;28;20061;-68
2023/04/13 10:15:44;;;;;;;9.80;2.08;;;;;;;-143.48;57.69;118439.88;5066311;28;20017;-67
2023/04/13 10:18:26;;;;;;;13.82;2.05;;;;;;;-143.48;57.11;118439.88;5066128;28;20025;-68
2023/04/13 10:20:53;;;;;;;16.30;2.25;;;;;;;-143.48;56.97;118439.88;5066231;28;20025;-69
2023/04/13 10:23:20;;;;;;;13.50;1.98;;;;;;;-143.48;58.21;118439.88;5065531;28;20388;-70
2023/04/13 10:25:53;;;;;;;8.07;2.17;;;;;;;-143.48;58.82;118439.88;5046279;28;20029;-69
2023/04/13 10:28:20;;;;;;;9.98;1.90;;;;;;;-143.48;59.33;118439.88;5046069;28;20107;-69
2023/04/13 10:30:52;;;;;;;13.98;2.47;;;;;;;-143.48;59.37;118439.88;5044408;28;20071;-69
2023/04/13 10:33:17;;;;;;;13.32;2.28;;;;;;;-143.48;60.34;118439.88;5066228;28;20036;-69
2023/04/13 10:35:57;;;;;;;17.00;2.05;;;;;;;-143.48;62.91;118439.88;5049603;28;20084;-69
2023/04/13 10:38:23;;;;;;;13.02;2.10;;;;;;;-143.48;60.39;118439.88;5068444;28;20081;-68
2023/04/13 10:40:49;;;;;;;21.38;2.35;;;;;;;-143.48;58.23;118439.88;5067229;28;20021;-68
2023/04/13 10:43:31;;;;;;;17.40;2.53;;;;;;;-143.48;59.81;118439.88;5065004;28;20051;-69
2023/04/13 10:46:12;;;;;;;14.25;2.00;;;;;;;-143.48;60.34;118439.88;5066707;28;20107;-69
2023/04/13 10:48:40;;;;;;;12.93;2.38;;;;;;;-143.48;59.59;118439.88;5064465;28;20018;-69
2023/04/13 10:51:05;;;;;;;11.45;2.15;;;;;;;-143.48;60.24;118439.88;5065914;28;20021;-70
2023/04/13 10:53:31;;;;;;;13.85;2.33;;;;;;;-143.48;59.28;118439.88;5067571;28;20102;-69
2023/04/13 10:55:57;;;;;;;16.42;2.30;;;;;;;-143.48;60.54;118439.88;5048454;28;20088;-69
2023/04/13 10:58:22;;;;;;;13.20;2.05;;;;;;;-143.48;59.19;118439.88;5067019;28;20019;-69
2023/04/13 11:00:50;;;;;;;11.68;2.10;;;;;;;-143.48;58.91;118439.88;5064132;28;20067;-70
2023/04/13 11:03:17;;;;;;;13.88;2.30;;;;;;;-143.48;60.16;118439.88;5055204;28;20089;-67
2023/04/13 11:05:43;;;;;;;8.32;1.88;;;;;;;-143.48;58.33;118439.88;5055327;28;20025;-69
2023/04/13 11:08:16;;;;;;;14.15;2.30;;;;;;;-143.48;61.53;118439.88;5055014;28;20159;-69